createdAt,value
2022-08-10T00:00:53.745Z,47.80
2022-08-10T00:03:22.094Z,47.47
2022-08-10T00:05:52.655Z,47.70
2022-08-10T00:08:22.831Z,48.04
2022-08-10T00:10:51.598Z,48.06
2022-08-10T00:13:19.292Z,47.99
2022-08-10T00:15:54.190Z,48.02
2022-08-10T00:18:35.168Z,48.63
2022-08-10T00:21:03.813Z,48.44
2022-08-10T00:23:32.008Z,48.77
2022-08-10T00:25:59.661Z,48.04
2022-08-10T00:28:27.383Z,48.50
2022-08-10T00:30:55.000Z,48.31
2022-08-10T00:33:24.043Z,48.29
2022-08-10T00:35:51.748Z,48.59
2022-08-10T00:38:19.425Z,48.61
2022-08-10T00:40:47.464Z,48.19
2022-08-10T00:43:15.483Z,47.93
2022-08-10T00:45:59.290Z,48.51
2022-08-10T00:48:28.060Z,48.67
2022-08-10T00:50:56.337Z,48.54
2022-08-10T00:53:23.998Z,48.97
2022-08-10T00:57:15.243Z,49.13
2022-08-10T00:58:41.816Z,48.46
2022-08-10T01:02:09.664Z,48.84
2022-08-10T01:04:58.020Z,48.86
2022-08-10T01:06:44.655Z,48.87
2022-08-10T01:09:12.813Z,49.21
2022-08-10T01:12:38.996Z,49.41
2022-08-10T01:14:28.096Z,48.87
2022-08-10T01:16:56.348Z,49.41
2022-08-10T01:19:24.116Z,49.01
2022-08-10T01:21:56.852Z,48.97
2022-08-10T01:24:25.238Z,49.45
2022-08-10T01:26:53.010Z,49.38
2022-08-10T01:29:20.724Z,49.64
2022-08-10T01:31:48.780Z,49.49
2022-08-10T01:34:16.504Z,49.18
2022-08-10T01:36:45.846Z,49.84
2022-08-10T01:39:13.550Z,49.42
2022-08-10T01:41:46.272Z,49.75
2022-08-10T01:44:14.717Z,49.87
2022-08-10T01:46:42.713Z,49.96
2022-08-10T01:49:09.348Z,49.63
2022-08-10T01:51:37.064Z,49.57
2022-08-10T01:54:07.174Z,49.97
2022-08-10T01:56:38.449Z,50.23
2022-08-10T01:59:07.733Z,49.81
2022-08-10T02:01:35.411Z,49.99
2022-08-10T02:04:04.684Z,50.92
2022-08-10T02:06:33.457Z,50.64
2022-08-10T02:09:06.425Z,50.50
2022-08-10T02:12:07.690Z,50.48
2022-08-10T02:14:22.380Z,50.84
2022-08-10T02:16:50.493Z,50.59
2022-08-10T02:19:18.192Z,50.47
2022-08-10T02:22:34.974Z,50.81
2022-08-10T02:24:33.562Z,50.99
2022-08-10T02:27:01.344Z,50.91
2022-08-10T02:29:30.908Z,51.14
2022-08-10T02:31:59.021Z,50.83
2022-08-10T02:34:27.473Z,50.80
2022-08-10T02:36:55.987Z,50.73
2022-08-10T02:39:23.613Z,51.08
2022-08-10T02:42:18.622Z,51.09
2022-08-10T02:45:26.379Z,51.04
2022-08-10T02:47:27.005Z,51.21
2022-08-10T02:49:54.998Z,51.56
2022-08-10T02:52:22.660Z,51.03
2022-08-10T02:54:50.320Z,51.63
2022-08-10T02:57:19.496Z,52.04
2022-08-10T02:59:47.107Z,52.05
2022-08-10T03:02:15.209Z,52.59
2022-08-10T03:04:56.133Z,52.56
2022-08-10T03:07:42.435Z,52.81
2022-08-10T03:10:13.383Z,53.25
2022-08-10T03:12:42.450Z,53.49
2022-08-10T03:15:10.057Z,53.88
2022-08-10T03:17:56.843Z,53.07
2022-08-10T03:20:36.806Z,53.28
2022-08-10T03:23:07.429Z,53.38
2022-08-10T03:25:35.102Z,53.64
2022-08-10T03:28:02.812Z,53.42
2022-08-10T03:30:33.881Z,53.67
2022-08-10T03:33:02.619Z,53.68
2022-08-10T03:35:30.320Z,54.25
2022-08-10T03:37:59.725Z,53.88
2022-08-10T03:40:44.975Z,53.98
2022-08-10T03:43:14.020Z,54.42
2022-08-10T03:45:55.358Z,54.15
2022-08-10T03:48:24.082Z,54.16
2022-08-10T03:50:52.929Z,54.45
2022-08-10T03:54:02.405Z,54.47
2022-08-10T03:56:28.562Z,54.37
2022-08-10T03:58:56.301Z,53.96
2022-08-10T04:02:46.141Z,54.32
2022-08-10T04:04:13.862Z,54.35
2022-08-10T04:06:44.564Z,54.49
2022-08-10T04:09:12.294Z,54.15
2022-08-10T04:11:42.092Z,54.22
2022-08-10T04:14:47.440Z,54.44
2022-08-10T04:16:57.452Z,54.03
2022-08-10T04:19:25.519Z,54.40
2022-08-10T04:21:53.247Z,54.38
2022-08-10T04:24:24.698Z,54.68
2022-08-10T04:26:57.294Z,54.98
2022-08-10T04:29:24.971Z,54.83
2022-08-10T04:31:53.199Z,55.33
2022-08-10T04:34:20.792Z,54.90
2022-08-10T04:36:48.507Z,54.53
2022-08-10T04:39:16.161Z,55.13
2022-08-10T04:41:47.291Z,54.86
2022-08-10T04:44:15.197Z,54.34
2022-08-10T04:46:56.353Z,54.44
2022-08-10T04:49:54.685Z,54.58
2022-08-10T04:52:14.229Z,53.79
2022-08-10T04:54:41.963Z,53.62
2022-08-10T04:57:09.757Z,53.79
2022-08-10T04:59:37.396Z,53.70
2022-08-10T05:02:28.777Z,53.52
2022-08-10T05:04:53.071Z,53.44
2022-08-10T05:07:20.802Z,53.39
2022-08-10T05:10:03.559Z,53.27
2022-08-10T05:12:36.629Z,53.38
2022-08-10T05:15:05.017Z,52.74
2022-08-10T05:17:32.996Z,52.32
2022-08-10T05:20:04.402Z,52.15
2022-08-10T05:22:33.625Z,52.28
2022-08-10T05:25:01.286Z,51.98
2022-08-10T05:27:29.256Z,51.58
2022-08-10T05:30:02.242Z,51.71
2022-08-10T05:32:30.976Z,51.02
2022-08-10T05:34:58.921Z,51.24
2022-08-10T05:38:12.902Z,50.65
2022-08-10T05:40:14.244Z,51.24
2022-08-10T05:42:41.928Z,50.87
2022-08-10T05:45:10.448Z,50.58
2022-08-10T05:48:54.257Z,50.86
2022-08-10T05:50:27.099Z,50.27
2022-08-10T05:52:54.705Z,50.76
2022-08-10T05:55:22.410Z,50.34
2022-08-10T05:57:50.071Z,50.41
2022-08-10T06:00:37.545Z,50.23
2022-08-10T06:03:08.116Z,49.95
2022-08-10T06:05:35.843Z,49.61
2022-08-10T06:08:03.770Z,49.33
2022-08-10T06:10:33.063Z,49.10
2022-08-10T06:13:29.787Z,49.24
2022-08-10T06:16:01.071Z,48.68
2022-08-10T06:18:28.997Z,48.34
2022-08-10T06:20:56.725Z,48.27
2022-08-10T06:23:24.402Z,48.62
2022-08-10T06:26:12.167Z,48.10
2022-08-10T06:28:40.158Z,48.44
2022-08-10T06:31:08.073Z,48.17
2022-08-10T06:33:35.764Z,47.65
2022-08-10T06:36:03.414Z,48.15
2022-08-10T06:38:31.412Z,47.43
2022-08-10T06:40:59.208Z,47.66
2022-08-10T06:43:26.853Z,47.48
2022-08-10T06:46:07.289Z,47.38
2022-08-10T06:48:36.463Z,47.08
2022-08-10T06:51:04.083Z,46.95
2022-08-10T06:53:54.388Z,46.50
2022-08-10T06:56:19.995Z,46.34
2022-08-10T06:59:06.044Z,46.57
2022-08-10T07:01:34.054Z,46.42
2022-08-10T07:04:01.882Z,46.28
2022-08-10T07:06:29.573Z,46.09
2022-08-10T07:08:57.745Z,46.18
2022-08-10T07:11:25.361Z,46.06
2022-08-10T07:14:15.663Z,45.70
2022-08-10T07:16:42.686Z,45.39
2022-08-10T07:19:10.927Z,45.50
2022-08-10T07:21:38.567Z,45.14
2022-08-10T07:24:08.495Z,44.75
2022-08-10T07:26:36.708Z,44.79
2022-08-10T07:29:04.427Z,44.53
2022-08-10T07:31:55.236Z,44.60
2022-08-10T07:34:28.480Z,44.23
2022-08-10T07:36:57.288Z,43.91
2022-08-10T07:40:03.021Z,44.19
2022-08-10T07:42:13.011Z,43.30
2022-08-10T07:44:40.649Z,43.79
2022-08-10T07:47:08.379Z,43.28
2022-08-10T07:49:36.414Z,43.02
2022-08-10T07:52:04.058Z,42.97
2022-08-10T07:54:31.778Z,43.23
2022-08-10T07:56:59.720Z,43.09
2022-08-10T07:59:27.475Z,42.52
2022-08-10T08:01:55.273Z,43.04
2022-08-10T08:04:23.333Z,42.63
2022-08-10T08:06:51.029Z,42.57
2022-08-10T08:09:18.698Z,42.08
2022-08-10T08:11:46.418Z,42.20
2022-08-10T08:14:14.578Z,42.11
2022-08-10T08:16:42.281Z,41.95
2022-08-10T08:19:26.892Z,41.66
2022-08-10T08:24:09.523Z,41.71
2022-08-10T08:24:44.452Z,41.47
2022-08-10T08:27:12.425Z,41.19
2022-08-10T08:29:41.499Z,41.65
2022-08-10T08:32:09.091Z,41.49
2022-08-10T08:34:36.783Z,41.33
2022-08-10T08:37:04.460Z,40.97
2022-08-10T08:39:33.468Z,40.53
2022-08-10T08:42:01.483Z,40.42
2022-08-10T08:44:34.242Z,40.05
2022-08-10T08:47:02.738Z,39.94
2022-08-10T08:49:41.437Z,39.96
2022-08-10T08:52:18.905Z,39.80
2022-08-10T08:54:47.304Z,39.97
2022-08-10T08:57:45.678Z,39.60
2022-08-10T09:00:02.980Z,39.64
2022-08-10T09:02:30.839Z,39.26
2022-08-10T09:04:58.857Z,39.42
2022-08-10T09:07:59.444Z,39.50
2022-08-10T09:10:14.252Z,39.54
2022-08-10T09:12:42.274Z,39.03
2022-08-10T09:15:09.984Z,38.66
2022-08-10T09:17:57.713Z,38.54
2022-08-10T09:20:25.765Z,38.36
2022-08-10T09:22:57.299Z,38.13
2022-08-10T09:25:25.536Z,37.99
2022-08-10T09:27:53.183Z,37.78
2022-08-10T09:30:28.445Z,37.68
2022-08-10T09:36:23.691Z,37.65
2022-08-10T09:36:23.871Z,37.19
2022-08-10T09:38:35.098Z,37.20
2022-08-10T09:41:07.479Z,36.49
2022-08-10T09:43:40.147Z,36.30
2022-08-10T09:46:11.732Z,36.05
2022-08-10T09:48:40.054Z,35.42
2022-08-10T09:51:44.146Z,34.98
2022-08-10T09:53:55.718Z,33.74
2022-08-10T09:56:28.542Z,34.02
2022-08-10T09:59:45.871Z,33.10
2022-08-10T10:02:02.552Z,32.68
2022-08-10T10:04:30.963Z,31.97
2022-08-10T10:06:58.702Z,31.60
2022-08-10T10:09:28.845Z,32.17
2022-08-10T10:11:56.741Z,31.06
2022-08-10T10:14:33.095Z,30.47
2022-08-10T10:17:02.277Z,31.00
2022-08-10T10:19:29.993Z,30.30
2022-08-10T10:21:57.943Z,30.13
2022-08-10T10:24:25.725Z,29.81
2022-08-10T10:26:53.690Z,29.68
2022-08-10T10:29:55.926Z,28.94
2022-08-10T10:32:09.202Z,28.62
2022-08-10T10:34:36.873Z,29.20
2022-08-10T10:37:06.770Z,28.17
2022-08-10T10:39:34.500Z,28.04
2022-08-10T10:42:03.528Z,27.92
2022-08-10T10:44:32.296Z,28.06
2022-08-10T10:47:00.045Z,28.14
2022-08-10T10:49:29.044Z,27.60
2022-08-10T10:52:00.105Z,27.04
2022-08-10T10:54:30.772Z,27.05
2022-08-10T10:56:58.422Z,26.86
2022-08-10T10:59:54.159Z,26.54
2022-08-10T11:02:14.135Z,26.96
2022-08-10T11:04:42.372Z,26.14
2022-08-10T11:07:11.316Z,26.01
2022-08-10T11:10:04.650Z,25.15
2022-08-10T11:12:29.763Z,25.42
2022-08-10T11:14:59.925Z,25.60
2022-08-10T11:17:28.535Z,25.89
2022-08-10T11:20:02.107Z,25.33
2022-08-10T11:22:30.892Z,25.02
2022-08-10T11:25:04.697Z,25.12
2022-08-10T11:27:32.821Z,24.86
2022-08-10T11:30:00.570Z,24.41
2022-08-10T11:32:28.296Z,24.69
2022-08-10T11:35:11.870Z,24.22
2022-08-10T11:38:30.317Z,24.09
2022-08-10T11:40:28.175Z,23.85
2022-08-10T11:42:55.970Z,23.18
2022-08-10T11:45:23.616Z,24.18
2022-08-10T11:47:51.586Z,23.85
2022-08-10T11:50:19.383Z,23.24
2022-08-10T11:52:47.057Z,22.83
2022-08-10T11:55:15.544Z,23.13
2022-08-10T11:57:54.130Z,23.81
2022-08-10T12:00:22.139Z,23.27
2022-08-10T12:02:50.333Z,22.49
2022-08-10T12:05:21.086Z,22.99
2022-08-10T12:10:04.278Z,23.06
2022-08-10T12:10:40.932Z,22.47
2022-08-10T12:13:09.115Z,22.21
2022-08-10T12:15:37.019Z,22.59
2022-08-10T12:18:04.742Z,22.17
2022-08-10T12:20:32.810Z,22.69
2022-08-10T12:23:00.540Z,22.91
2022-08-10T12:25:55.622Z,22.82
2022-08-10T12:28:16.582Z,22.83
2022-08-10T12:30:44.571Z,22.28
2022-08-10T12:33:12.264Z,22.24
2022-08-10T12:35:41.919Z,22.09
2022-08-10T12:38:15.423Z,22.29
2022-08-10T12:40:43.123Z,22.20
2022-08-10T12:44:04.592Z,22.77
2022-08-10T12:46:03.071Z,22.61
2022-08-10T12:48:33.647Z,22.35
2022-08-10T12:51:01.776Z,22.48
2022-08-10T12:53:29.571Z,23.22
2022-08-10T12:55:57.363Z,22.66
2022-08-10T12:58:57.873Z,23.11
2022-08-10T13:01:16.490Z,23.36
2022-08-10T13:04:19.939Z,24.05
2022-08-10T13:06:32.156Z,24.13
2022-08-10T13:09:13.245Z,23.79
2022-08-10T13:12:37.209Z,24.93
2022-08-10T13:14:28.915Z,25.24
2022-08-10T13:16:56.920Z,25.54
2022-08-10T13:19:25.278Z,25.24
2022-08-10T13:21:55.995Z,25.39
2022-08-10T13:24:23.976Z,26.15
2022-08-10T13:27:24.627Z,26.27
2022-08-10T13:29:39.677Z,25.98
2022-08-10T13:32:10.591Z,26.21
2022-08-10T13:34:44.362Z,25.90
2022-08-10T13:37:12.719Z,25.85
2022-08-10T13:39:58.256Z,26.23
2022-08-10T13:42:32.183Z,25.94
2022-08-10T13:45:06.771Z,26.29
2022-08-10T13:47:36.256Z,25.46
2022-08-10T13:50:17.398Z,25.73
2022-08-10T13:52:47.053Z,25.43
2022-08-10T13:55:14.740Z,24.82
2022-08-10T13:57:46.298Z,25.29
2022-08-10T14:00:34.326Z,25.08
2022-08-10T14:03:03.327Z,24.66
2022-08-10T14:05:30.945Z,24.99
2022-08-10T14:08:00.582Z,25.31
2022-08-10T14:11:08.347Z,25.20
2022-08-10T14:13:17.001Z,25.34
2022-08-10T14:15:44.821Z,25.31
2022-08-10T14:18:12.914Z,25.34
2022-08-10T14:20:40.926Z,25.71
2022-08-10T14:23:08.601Z,24.97
2022-08-10T14:25:36.341Z,25.10
2022-08-10T14:28:04.288Z,25.09
2022-08-10T14:30:32.356Z,25.15
2022-08-10T14:33:00.482Z,24.72
2022-08-10T14:36:20.169Z,25.10
2022-08-10T14:38:15.924Z,25.06
2022-08-10T14:40:44.656Z,24.31
2022-08-10T14:43:12.953Z,24.49
2022-08-10T14:45:44.435Z,24.87
2022-08-10T14:48:12.107Z,24.63
2022-08-10T14:50:39.886Z,24.69
2022-08-10T14:53:26.699Z,24.00
2022-08-10T14:55:59.107Z,24.26
2022-08-10T14:58:28.556Z,23.95
2022-08-10T15:00:56.370Z,23.16
2022-08-10T15:04:01.431Z,23.94
2022-08-10T15:06:17.316Z,23.76
2022-08-10T15:08:47.016Z,23.80
2022-08-10T15:12:12.252Z,23.12
2022-08-10T15:14:41.636Z,22.47
2022-08-10T15:16:50.850Z,22.24
2022-08-10T15:20:00.843Z,21.72
2022-08-10T15:22:36.009Z,21.71
2022-08-10T15:25:05.978Z,21.21
2022-08-10T15:27:54.772Z,21.43
2022-08-10T15:30:23.195Z,21.56
2022-08-10T15:33:21.313Z,21.93
2022-08-10T15:36:25.457Z,22.28
2022-08-10T15:38:56.138Z,22.35
2022-08-10T15:41:24.725Z,21.98
2022-08-10T15:44:11.728Z,22.27
2022-08-10T15:46:39.510Z,22.15
2022-08-10T15:49:07.189Z,22.00
2022-08-10T15:51:54.064Z,22.26
2022-08-10T15:54:33.642Z,22.23
2022-08-10T15:57:02.387Z,21.97
2022-08-10T15:59:30.103Z,21.56
2022-08-10T16:02:14.762Z,21.94
2022-08-10T16:04:45.856Z,21.33
2022-08-10T16:07:13.711Z,21.75
2022-08-10T16:10:22.695Z,20.78
2022-08-10T16:12:32.620Z,20.91
2022-08-10T16:15:06.533Z,21.21
2022-08-10T16:17:54.645Z,21.08
2022-08-10T16:20:23.027Z,20.59
2022-08-10T16:22:54.923Z,20.84
2022-08-10T16:25:22.659Z,20.96
2022-08-10T16:27:50.298Z,20.74
2022-08-10T16:30:18.013Z,20.96
2022-08-10T16:32:47.454Z,21.23
2022-08-10T16:35:15.415Z,21.18
2022-08-10T16:37:57.702Z,22.42
2022-08-10T16:40:27.243Z,24.06
2022-08-10T16:42:55.287Z,24.88
2022-08-10T16:45:22.975Z,25.84
2022-08-10T16:47:50.787Z,26.41
2022-08-10T16:50:18.741Z,26.94
2022-08-10T16:52:46.451Z,26.94
2022-08-10T16:55:23.840Z,27.44
2022-08-10T16:58:02.047Z,28.32
2022-08-10T17:00:30.113Z,28.79
2022-08-10T17:02:58.289Z,28.72
2022-08-10T17:06:09.830Z,29.04
2022-08-10T17:08:14.048Z,29.26
2022-08-10T17:10:41.935Z,29.26
2022-08-10T17:13:09.926Z,29.79
2022-08-10T17:15:37.709Z,29.13
2022-08-10T17:18:05.413Z,29.53
2022-08-10T17:20:33.469Z,29.96
2022-08-10T17:23:01.200Z,29.99
2022-08-10T17:25:45.882Z,30.08
2022-08-10T17:28:35.305Z,30.23
2022-08-10T17:31:03.952Z,29.99
2022-08-10T17:33:46.606Z,30.39
2022-08-10T17:36:14.290Z,30.14
2022-08-10T17:38:42.026Z,30.52
2022-08-10T17:41:11.124Z,30.63
2022-08-10T17:43:46.093Z,30.49
2022-08-10T17:46:26.794Z,30.84
2022-08-10T17:48:54.830Z,30.77
2022-08-10T17:51:23.281Z,30.69
2022-08-10T17:53:53.061Z,30.70
2022-08-10T17:56:20.758Z,30.65
2022-08-10T17:58:48.685Z,31.64
2022-08-10T18:01:40.653Z,30.99
2022-08-10T18:04:04.169Z,31.18
2022-08-10T18:06:32.263Z,30.93
2022-08-10T18:09:00.102Z,30.99
2022-08-10T18:11:27.717Z,31.50
2022-08-10T18:13:56.990Z,31.26
2022-08-10T18:16:25.111Z,31.61
2022-08-10T18:18:58.363Z,31.66
2022-08-10T18:21:30.899Z,31.44
2022-08-10T18:23:59.222Z,31.63
2022-08-10T18:26:26.929Z,31.77
2022-08-10T18:28:54.657Z,31.70
2022-08-10T18:31:22.388Z,32.01
2022-08-10T18:33:50.041Z,31.80
2022-08-10T18:36:17.883Z,31.78
2022-08-10T18:38:45.562Z,31.88
2022-08-10T18:41:13.224Z,32.01
2022-08-10T18:44:10.391Z,32.08
2022-08-10T18:46:28.945Z,32.24
2022-08-10T18:48:56.636Z,32.59
2022-08-10T18:51:24.576Z,32.45
2022-08-10T18:53:52.264Z,32.95
2022-08-10T18:56:20.013Z,32.65
2022-08-10T18:58:47.689Z,32.99
2022-08-10T19:01:17.354Z,33.24
2022-08-10T19:03:53.864Z,33.29
2022-08-10T19:06:22.016Z,33.62
2022-08-10T19:08:50.202Z,33.62
2022-08-10T19:11:19.023Z,33.25
2022-08-10T19:13:48.947Z,33.19
2022-08-10T19:16:19.470Z,33.59
2022-08-10T19:18:47.338Z,33.94
2022-08-10T19:21:15.384Z,33.71
2022-08-10T19:23:43.352Z,33.86
2022-08-10T19:26:33.010Z,33.95
2022-08-10T19:28:58.830Z,34.07
2022-08-10T19:31:44.125Z,33.79
2022-08-10T19:34:12.717Z,34.19
2022-08-10T19:36:40.587Z,34.58
2022-08-10T19:39:08.410Z,34.67
2022-08-10T19:41:41.968Z,34.19
2022-08-10T19:44:12.990Z,34.44
2022-08-10T19:46:40.779Z,34.59
2022-08-10T19:49:08.613Z,34.84
2022-08-10T19:51:36.615Z,34.63
2022-08-10T19:54:04.271Z,34.49
2022-08-10T19:56:34.461Z,34.25
2022-08-10T19:59:03.027Z,34.80
2022-08-10T20:01:52.824Z,34.64
2022-08-10T20:04:18.483Z,35.05
2022-08-10T20:06:46.963Z,35.37
2022-08-10T20:09:14.629Z,35.25
2022-08-10T20:11:46.516Z,34.92
2022-08-10T20:14:21.973Z,35.35
2022-08-10T20:16:50.447Z,35.59
2022-08-10T20:19:19.196Z,35.43
2022-08-10T20:21:48.182Z,35.33
2022-08-10T20:24:16.256Z,35.66
2022-08-10T20:26:43.980Z,35.77
2022-08-10T20:29:16.423Z,35.65
2022-08-10T20:31:59.512Z,36.08
2022-08-10T20:34:27.248Z,36.21
2022-08-10T20:36:54.954Z,36.06
2022-08-10T20:39:22.786Z,36.23
2022-08-10T20:41:50.427Z,36.11
2022-08-10T20:44:18.413Z,36.25
2022-08-10T20:46:46.107Z,36.46
2022-08-10T20:49:13.853Z,36.29
2022-08-10T20:51:57.457Z,37.09
2022-08-10T20:54:28.142Z,36.79
2022-08-10T20:56:55.769Z,36.88
2022-08-10T20:59:24.142Z,37.30
2022-08-10T21:02:11.822Z,36.87
2022-08-10T21:04:42.094Z,37.79
2022-08-10T21:07:22.221Z,37.28
2022-08-10T21:09:57.508Z,37.69
2022-08-10T21:12:25.260Z,37.46
2022-08-10T21:14:53.272Z,37.72
2022-08-10T21:17:20.999Z,37.65
2022-08-10T21:19:52.228Z,37.87
2022-08-10T21:22:21.736Z,37.88
2022-08-10T21:24:52.284Z,37.91
2022-08-10T21:27:19.000Z,38.33
2022-08-10T21:29:53.933Z,38.30
2022-08-10T21:32:22.965Z,38.02
2022-08-10T21:34:53.038Z,37.87
2022-08-10T21:37:21.060Z,38.47
2022-08-10T21:39:48.160Z,38.62
2022-08-10T21:42:33.566Z,38.33
2022-08-10T21:45:18.762Z,38.57
2022-08-10T21:48:16.647Z,38.70
2022-08-10T21:51:05.809Z,38.77
2022-08-10T21:53:51.790Z,39.19
2022-08-10T21:56:36.770Z,39.14
2022-08-10T21:59:21.793Z,39.40
2022-08-10T22:02:07.074Z,39.17
2022-08-10T22:04:52.445Z,38.91
2022-08-10T22:07:37.319Z,39.25
2022-08-10T22:10:22.389Z,39.47
2022-08-10T22:13:11.398Z,39.96
2022-08-10T22:16:09.631Z,39.66
2022-08-10T22:19:02.851Z,40.08
2022-08-10T22:21:49.074Z,40.01
2022-08-10T22:24:36.049Z,40.02
2022-08-10T22:27:47.081Z,40.48
2022-08-10T22:30:34.476Z,40.16
2022-08-10T22:33:20.285Z,40.14
2022-08-10T22:36:05.774Z,40.27
2022-08-10T22:38:52.294Z,40.67
2022-08-10T22:41:37.514Z,40.25
2022-08-10T22:44:22.736Z,40.61
2022-08-10T22:47:08.083Z,40.58
2022-08-10T22:49:34.546Z,40.90
2022-08-10T22:52:02.391Z,40.63
2022-08-10T22:54:47.334Z,40.71
2022-08-10T22:57:32.759Z,41.13
2022-08-10T23:00:00.429Z,41.36
2022-08-10T23:02:28.415Z,41.17
2022-08-10T23:04:56.216Z,41.28
2022-08-10T23:07:23.912Z,41.64
2022-08-10T23:09:51.647Z,41.74
2022-08-10T23:12:19.443Z,41.72
2022-08-10T23:15:00.074Z,41.86
2022-08-10T23:18:00.427Z,41.67
2022-08-10T23:20:29.892Z,41.36
2022-08-10T23:22:57.826Z,41.51
2022-08-10T23:25:30.187Z,41.70
2022-08-10T23:28:00.490Z,42.08
2022-08-10T23:30:28.161Z,41.94
2022-08-10T23:32:57.435Z,42.05
2022-08-10T23:36:29.622Z,41.98
2022-08-10T23:38:12.804Z,42.09
2022-08-10T23:40:40.528Z,42.50
2022-08-10T23:43:08.514Z,42.83
2022-08-10T23:45:53.001Z,42.63
2022-08-10T23:48:21.657Z,42.54
2022-08-10T23:50:53.282Z,43.08
2022-08-10T23:53:27.365Z,43.08
2022-08-10T23:55:55.040Z,42.76
2022-08-10T23:58:32.969Z,43.28
